Time;durP1;ratioP1;P1;durP2;ratioP2;P2;SDS_P1;SDS_P2;PMS_P1;PMS_P2;Temp;Humidity;BMP_temperature;BMP_pressure;BME280_temperature;BME280_humidity;BME280_pressure;Samples;Min_cycle;Max_cycle;Signal;HPM_P1;HPM_P2
2021/12/09 00:01:55;;;;;;;36.83;19.00;;;;;;;-0.92;100.00;95139.91;10609014;28;20170;-63
2021/12/09 00:06:58;;;;;;;42.10;20.13;;;;;;;-0.85;100.00;95143.63;10608286;28;20170;-63
2021/12/09 00:11:59;;;;;;;39.77;20.33;;;;;;;-0.96;100.00;95157.34;10609207;28;20170;-63
2021/12/09 00:17:04;;;;;;;38.50;18.60;;;;;;;-0.80;100.00;95156.09;10608106;28;20220;-64
2021/12/09 00:22:06;;;;;;;39.93;18.60;;;;;;;-1.00;100.00;95135.41;10608885;28;20166;-61
2021/12/09 00:27:06;;;;;;;37.87;19.57;;;;;;;-1.03;100.00;95147.69;10604547;28;20329;-63
2021/12/09 00:32:07;;;;;;;37.03;18.93;;;;;;;-0.78;100.00;95149.06;10564441;28;20186;-62
2021/12/09 00:37:18;;;;;;;39.27;19.63;;;;;;;-0.68;100.00;95146.56;10608437;28;20296;-61
2021/12/09 00:42:21;;;;;;;35.90;19.33;;;;;;;-0.84;100.00;95165.00;10607954;28;20172;-64
2021/12/09 00:47:22;;;;;;;41.87;20.83;;;;;;;-1.24;100.00;95189.59;10586409;28;20210;-62
2021/12/09 00:52:27;;;;;;;39.00;21.13;;;;;;;-1.35;100.00;95195.56;10573825;28;20178;-63
2021/12/09 00:57:28;;;;;;;42.00;20.87;;;;;;;-1.25;100.00;95175.09;10572995;28;20163;-62
2021/12/09 01:02:28;;;;;;;39.70;19.07;;;;;;;-1.22;100.00;95179.19;10582735;28;20298;-63
2021/12/09 01:07:29;;;;;;;35.50;19.60;;;;;;;-1.25;100.00;95180.25;10598475;28;20364;-62
2021/12/09 01:12:29;;;;;;;40.43;20.27;;;;;;;-1.20;100.00;95182.44;10587567;28;20181;-61
2021/12/09 01:17:30;;;;;;;36.00;18.23;;;;;;;-1.24;100.00;95186.19;10586886;28;20222;-61
2021/12/09 01:22:37;;;;;;;37.80;18.90;;;;;;;-1.26;100.00;95189.72;10586426;28;20385;-61
2021/12/09 01:27:41;;;;;;;36.87;18.47;;;;;;;-1.29;100.00;95195.09;10573798;28;20281;-63
2021/12/09 01:32:48;;;;;;;38.30;20.70;;;;;;;-1.27;100.00;95218.09;10590113;28;20209;-65
2021/12/09 01:37:53;;;;;;;44.33;22.73;;;;;;;-1.49;100.00;95209.47;10597249;28;20170;-63
2021/12/09 01:42:54;;;;;;;36.57;18.90;;;;;;;-1.39;100.00;95203.63;10584616;28;20189;-62
2021/12/09 01:47:55;;;;;;;41.83;19.13;;;;;;;-1.36;100.00;95190.53;10592094;28;20208;-63
2021/12/09 01:52:55;;;;;;;36.57;18.93;;;;;;;-1.33;100.00;95198.00;10582002;28;20463;-61
2021/12/09 01:57:56;;;;;;;38.07;18.47;;;;;;;-1.33;100.00;95187.72;10592273;28;20182;-63
2021/12/09 02:02:56;;;;;;;39.80;20.33;;;;;;;-1.15;100.00;95188.03;10580317;28;20197;-62
2021/12/09 02:07:57;;;;;;;39.23;18.63;;;;;;;-1.23;100.00;95208.38;10588983;28;20472;-62
2021/12/09 02:12:57;;;;;;;41.50;19.87;;;;;;;-0.98;100.00;95205.50;10584178;28;20183;-62
2021/12/09 02:17:58;;;;;;;35.60;17.33;;;;;;;-0.72;100.00;95207.69;10573034;28;20262;-62
2021/12/09 02:22:58;;;;;;;37.47;18.33;;;;;;;-0.82;100.00;95204.25;10583483;28;20173;-62
2021/12/09 02:27:59;;;;;;;36.40;19.73;;;;;;;-0.80;100.00;95220.38;10575732;28;20198;-63
2021/12/09 02:32:59;;;;;;;36.90;19.33;;;;;;;-0.73;100.00;95198.38;10573223;28;20166;-63
2021/12/09 02:38:00;;;;;;;36.90;18.47;;;;;;;-0.85;100.00;95195.03;10581901;28;20185;-61
2021/12/09 02:43:01;;;;;;;37.00;19.67;;;;;;;-0.77;100.00;95191.84;10585435;28;20166;-62
2021/12/09 02:48:01;;;;;;;38.37;19.63;;;;;;;-0.81;100.00;95188.72;10581996;28;20440;-63
2021/12/09 02:53:02;;;;;;;37.00;18.27;;;;;;;-0.79;100.00;95186.03;10578452;28;20170;-62
2021/12/09 02:58:03;;;;;;;41.73;19.43;;;;;;;-0.89;100.00;95191.06;10588298;28;20377;-62
2021/12/09 03:03:03;;;;;;;34.13;16.37;;;;;;;-0.87;100.00;95207.22;10584949;28;20170;-62
2021/12/09 03:08:03;;;;;;;23.00;10.23;;;;;;;-1.03;100.00;95205.03;10585411;28;20205;-62
2021/12/09 03:13:05;;;;;;;42.67;20.47;;;;;;;-0.96;100.00;95213.09;10591333;28;20174;-61
2021/12/09 03:18:06;;;;;;;44.83;22.03;;;;;;;-1.27;100.00;95248.94;10579680;28;20216;-61
2021/12/09 03:23:06;;;;;;;45.47;23.43;;;;;;;-1.16;100.00;95250.66;10585306;28;20184;-63
2021/12/09 03:28:06;;;;;;;50.77;24.07;;;;;;;-1.12;100.00;95224.59;10579233;28;20416;-62
2021/12/09 03:33:07;;;;;;;43.90;22.33;;;;;;;-1.17;100.00;95218.97;10576316;28;20197;-64
2021/12/09 03:38:07;;;;;;;41.33;20.27;;;;;;;-1.14;100.00;95187.09;10583503;28;20198;-63
2021/12/09 03:43:08;;;;;;;44.13;22.90;;;;;;;-0.68;100.00;95198.81;10581530;28;20178;-64
2021/12/09 03:48:08;;;;;;;42.50;22.77;;;;;;;-0.79;100.00;95212.53;10581507;28;20194;-64
2021/12/09 03:53:08;;;;;;;42.17;21.17;;;;;;;-0.92;100.00;95201.59;10579016;28;20173;-63
2021/12/09 03:58:09;;;;;;;50.40;24.60;;;;;;;-0.99;100.00;95201.28;10579001;28;20184;-64
2021/12/09 04:03:09;;;;;;;51.37;24.33;;;;;;;-1.06;100.00;95205.28;10582970;28;20178;-60
2021/12/09 04:08:10;;;;;;;49.17;23.80;;;;;;;-0.93;100.00;95202.56;10572792;28;20208;-64
2021/12/09 04:13:10;;;;;;;49.43;24.53;;;;;;;-0.78;100.00;95208.19;10574401;28;20257;-61
2021/12/09 04:18:11;;;;;;;53.03;24.80;;;;;;;-0.72;100.00;95215.41;10584047;28;20344;-65
2021/12/09 04:23:11;;;;;;;52.70;23.97;;;;;;;-0.80;100.00;95221.19;10594365;28;20196;-62
2021/12/09 04:28:12;;;;;;;45.73;23.17;;;;;;;-0.84;100.00;95224.13;10598642;28;20206;-64
2021/12/09 04:33:12;;;;;;;45.37;22.37;;;;;;;-0.91;100.00;95232.31;10590410;28;20182;-63
2021/12/09 04:38:12;;;;;;;48.60;23.73;;;;;;;-0.89;100.00;95224.50;10585679;28;20242;-61
2021/12/09 04:43:13;;;;;;;52.70;23.20;;;;;;;-0.96;100.00;95228.50;10594048;28;20178;-62
2021/12/09 04:48:13;;;;;;;50.73;23.23;;;;;;;-1.02;100.00;95226.44;10586040;28;20205;-61
2021/12/09 04:53:14;;;;;;;49.33;23.67;;;;;;;-0.95;100.00;95223.25;10593764;28;20227;-64
2021/12/09 04:58:14;;;;;;;52.13;23.13;;;;;;;-0.91;100.00;95213.53;10598884;28;20169;-61
2021/12/09 05:03:15;;;;;;;54.03;23.30;;;;;;;-1.02;100.00;95211.00;10588056;28;20171;-62
2021/12/09 05:08:17;;;;;;;50.83;22.97;;;;;;;-1.04;100.00;95211.13;10588859;28;20237;-60
2021/12/09 05:13:18;;;;;;;62.90;27.70;;;;;;;-1.21;100.00;95191.91;10591596;28;20189;-60
2021/12/09 05:18:19;;;;;;;51.33;24.77;;;;;;;-1.12;100.00;95223.75;10589580;28;20229;-63
2021/12/09 05:23:21;;;;;;;57.17;25.23;;;;;;;-1.16;100.00;95224.97;10580842;28;20189;-65
2021/12/09 05:28:30;;;;;;;58.57;27.53;;;;;;;-1.31;100.00;95209.78;10581035;28;20218;-62
2021/12/09 05:33:32;;;;;;;60.27;26.93;;;;;;;-1.18;100.00;95193.41;10595005;28;20225;-61
2021/12/09 05:38:32;;;;;;;55.87;28.17;;;;;;;-1.25;100.00;95203.38;10596385;28;20183;-65
2021/12/09 05:43:33;;;;;;;58.60;27.77;;;;;;;-1.27;100.00;95211.19;10590089;28;20389;-62
2021/12/09 05:48:35;;;;;;;62.67;27.43;;;;;;;-1.24;100.00;95209.31;10591910;28;20482;-63
2021/12/09 05:53:35;;;;;;;60.17;27.27;;;;;;;-1.31;100.00;95217.50;10593815;28;20301;-63
2021/12/09 05:58:35;;;;;;;60.53;26.83;;;;;;;-1.32;100.00;95226.16;10586129;28;20178;-63
2021/12/09 06:03:36;;;;;;;54.87;25.40;;;;;;;-1.23;100.00;95192.97;10585609;28;20190;-64
2021/12/09 06:08:38;;;;;;;60.57;27.07;;;;;;;-1.23;100.00;95208.38;10580450;28;20212;-63
2021/12/09 06:13:39;;;;;;;59.80;26.03;;;;;;;-1.00;100.00;95216.84;10588349;28;20185;-62
2021/12/09 06:18:40;;;;;;;57.40;27.13;;;;;;;-1.34;100.00;95222.88;10590313;28;20260;-62
2021/12/09 06:23:40;;;;;;;54.93;24.73;;;;;;;-1.18;100.00;95253.34;10588081;28;20204;-64
2021/12/09 06:28:41;;;;;;;51.53;23.03;;;;;;;-1.14;100.00;95241.88;10579919;28;20217;-63
2021/12/09 06:33:41;;;;;;;53.63;23.70;;;;;;;-1.09;100.00;95270.59;10577765;28;20312;-65
2021/12/09 06:38:41;;;;;;;51.23;23.17;;;;;;;-1.03;100.00;95264.16;10584040;28;20271;-65
2021/12/09 06:43:42;;;;;;;52.37;24.73;;;;;;;-1.21;100.00;95240.75;10593753;28;20241;-63
2021/12/09 06:48:42;;;;;;;51.37;21.87;;;;;;;-1.06;100.00;95253.31;10599495;28;20413;-61
2021/12/09 06:53:43;;;;;;;53.23;22.00;;;;;;;-1.03;100.00;95261.56;10599160;28;20182;-63
2021/12/09 06:58:43;;;;;;;55.03;23.80;;;;;;;-1.05;100.00;95258.31;10606327;28;20165;-64
2021/12/09 07:03:43;;;;;;;53.27;23.50;;;;;;;-1.02;100.00;95277.84;10607046;28;20181;-62
2021/12/09 07:08:48;;;;;;;50.23;21.90;;;;;;;-1.00;100.00;95278.53;10606531;28;20217;-64
2021/12/09 07:13:49;;;;;;;48.50;22.40;;;;;;;-1.01;100.00;95261.44;10579801;28;20185;-64
2021/12/09 07:18:50;;;;;;;63.13;25.10;;;;;;;-0.79;100.00;95297.38;10584267;28;20218;-65
2021/12/09 07:23:50;;;;;;;60.13;23.37;;;;;;;-0.82;100.00;95277.06;10581684;28;20174;-64
2021/12/09 07:28:50;;;;;;;51.70;23.23;;;;;;;-0.99;100.00;95244.97;10580766;28;20251;-65
2021/12/09 07:33:52;;;;;;;57.20;23.43;;;;;;;-0.85;100.00;95264.44;10600733;28;20189;-64
2021/12/09 07:38:52;;;;;;;57.17;22.93;;;;;;;-0.83;100.00;95290.84;10588615;28;20182;-64
2021/12/09 07:43:53;;;;;;;56.77;25.17;;;;;;;-0.83;100.00;95285.69;10585219;28;20344;-64
2021/12/09 07:48:53;;;;;;;57.43;23.50;;;;;;;-0.93;100.00;95277.91;10585314;28;20654;-64
2021/12/09 07:53:54;;;;;;;53.63;23.20;;;;;;;-1.02;100.00;95278.63;10584383;28;20178;-65
2021/12/09 07:58:54;;;;;;;45.30;21.60;;;;;;;-0.93;100.00;95285.63;10578413;28;20189;-66
2021/12/09 08:03:55;;;;;;;51.70;22.97;;;;;;;-0.75;100.00;95292.81;10584881;28;20182;-62
2021/12/09 08:08:55;;;;;;;62.07;24.83;;;;;;;-0.59;100.00;95292.41;10583162;28;20265;-64
2021/12/09 08:13:56;;;;;;;54.90;24.80;;;;;;;-0.59;100.00;95292.41;10584952;28;20349;-65
2021/12/09 08:18:56;;;;;;;50.87;23.93;;;;;;;-0.49;100.00;95288.16;10575843;28;20218;-65
2021/12/09 08:23:57;;;;;;;53.60;24.40;;;;;;;-0.10;100.00;95316.72;10578788;28;20235;-65
2021/12/09 08:28:57;;;;;;;52.27;24.00;;;;;;;0.12;100.00;95296.94;10596826;28;20216;-65
2021/12/09 08:33:59;;;;;;;51.80;23.60;;;;;;;0.30;100.00;95300.56;10590089;28;20185;-64
2021/12/09 08:38:59;;;;;;;47.83;22.33;;;;;;;0.39;100.00;95305.91;10579677;28;20170;-64
2021/12/09 08:43:59;;;;;;;49.10;22.97;;;;;;;-0.07;100.00;95308.75;10592047;28;20332;-65
2021/12/09 08:49:00;;;;;;;44.90;22.67;;;;;;;0.28;100.00;95304.22;10586465;28;20380;-61
2021/12/09 08:54:00;;;;;;;47.13;22.17;;;;;;;0.46;100.00;95294.94;10594710;28;20733;-63
2021/12/09 08:59:03;;;;;;;45.57;21.47;;;;;;;0.50;100.00;95292.94;10579476;28;20299;-62
2021/12/09 09:04:03;;;;;;;42.93;21.63;;;;;;;0.44;100.00;95317.44;10574779;28;20186;-64
2021/12/09 09:09:05;;;;;;;49.10;20.53;;;;;;;0.62;100.00;95307.34;10588540;28;20204;-63
2021/12/09 09:14:05;;;;;;;45.17;20.60;;;;;;;0.58;100.00;95321.44;10592409;28;20234;-63
2021/12/09 09:19:06;;;;;;;45.17;21.03;;;;;;;0.46;100.00;95349.06;10580215;28;20235;-62
2021/12/09 09:24:07;;;;;;;37.87;18.47;;;;;;;0.40;100.00;95341.00;10610691;28;20213;-63
2021/12/09 09:29:07;;;;;;;82.80;34.13;;;;;;;0.22;100.00;95331.28;10580108;28;20500;-61
2021/12/09 09:34:08;;;;;;;67.17;27.53;;;;;;;0.43;100.00;95335.59;10595509;28;20223;-63
2021/12/09 09:39:17;;;;;;;52.27;25.73;;;;;;;0.51;100.00;95338.38;10597277;27;20174;-63
2021/12/09 09:44:21;;;;;;;45.73;22.00;;;;;;;0.39;100.00;95339.38;10592513;27;20311;-63
2021/12/09 09:49:21;;;;;;;45.63;20.37;;;;;;;0.40;100.00;95344.41;10565177;28;20291;-63
2021/12/09 09:54:21;;;;;;;42.97;21.00;;;;;;;0.28;100.00;95342.84;10605182;28;20219;-61
2021/12/09 09:59:22;;;;;;;47.80;20.37;;;;;;;0.50;100.00;95337.53;10592746;28;20187;-61
2021/12/09 10:04:44;;;;;;;41.57;19.20;;;;;;;0.31;100.00;95330.53;10572383;28;20196;-62
2021/12/09 10:09:45;;;;;;;38.03;18.67;;;;;;;0.41;100.00;95337.50;10576658;28;20445;-62
2021/12/09 10:14:52;;;;;;;38.53;18.87;;;;;;;0.60;100.00;95311.81;10579101;28;20217;-63
2021/12/09 10:19:54;;;;;;;35.20;17.97;;;;;;;0.35;100.00;95315.63;10566682;28;20177;-62
2021/12/09 10:24:56;;;;;;;39.40;18.83;;;;;;;0.07;100.00;95317.91;10567132;28;20399;-61
2021/12/09 10:30:18;;;;;;;43.77;19.13;;;;;;;0.44;100.00;95309.69;10597906;28;20228;-62
2021/12/09 10:35:20;;;;;;;43.57;19.70;;;;;;;0.55;100.00;95295.09;10571539;28;20206;-64
2021/12/09 10:40:25;;;;;;;43.07;20.33;;;;;;;0.45;100.00;95307.97;10605115;28;20180;-66
2021/12/09 10:45:32;;;;;;;42.97;20.53;;;;;;;0.53;100.00;95300.41;10591319;28;20375;-61
2021/12/09 10:50:40;;;;;;;48.63;22.93;;;;;;;0.61;100.00;95276.56;10565174;28;20287;-64
2021/12/09 10:55:41;;;;;;;39.70;19.80;;;;;;;0.73;100.00;95272.13;10566568;28;20169;-65
2021/12/09 11:00:45;;;;;;;38.20;18.57;;;;;;;0.60;100.00;95286.06;10600859;28;20179;-64
2021/12/09 11:05:56;;;;;;;51.23;21.50;;;;;;;0.29;100.00;95287.81;10589355;28;20182;-65
2021/12/09 11:11:05;;;;;;;37.63;17.13;;;;;;;0.14;100.00;95284.78;10565832;28;20205;-63
2021/12/09 11:16:07;;;;;;;37.53;17.60;;;;;;;0.34;100.00;95289.06;10577479;28;20566;-65
2021/12/09 11:21:29;;;;;;;37.43;18.97;;;;;;;0.31;100.00;95298.81;10601132;28;20233;-65
2021/12/09 11:26:40;;;;;;;36.57;18.13;;;;;;;0.30;100.00;95300.56;10604927;28;20249;-67
2021/12/09 11:31:53;;;;;;;40.23;17.63;;;;;;;0.49;100.00;95317.88;10606138;28;20249;-65
2021/12/09 11:36:59;;;;;;;35.90;18.93;;;;;;;0.14;100.00;95351.72;10599058;28;20237;-66
2021/12/09 11:42:17;;;;;;;36.93;18.27;;;;;;;-0.16;100.00;95311.28;10607966;28;20169;-66
2021/12/09 11:47:18;;;;;;;40.80;20.27;;;;;;;-0.19;100.00;95302.84;10591634;28;20224;-66
2021/12/09 11:52:19;;;;;;;43.07;19.63;;;;;;;-0.02;100.00;95304.03;10564086;28;20464;-67
2021/12/09 11:57:36;;;;;;;37.83;18.90;;;;;;;0.39;100.00;95313.63;10590683;28;20298;-66
2021/12/09 12:13:43;;;;;;;37.30;18.13;;;;;;;0.44;100.00;95293.44;10563876;28;20182;-67
2021/12/09 12:19:03;;;;;;;40.33;19.20;;;;;;;0.53;100.00;95278.00;10572451;28;20220;-66
2021/12/09 12:40:23;;;;;;;39.53;18.97;;;;;;;0.52;100.00;95320.19;10605779;28;20278;-65
2021/12/09 12:51:05;;;;;;;26.40;13.70;;;;;;;0.07;100.00;95317.13;10604104;28;20209;-66
2021/12/09 12:56:28;;;;;;;25.20;13.27;;;;;;;0.19;100.00;95323.81;10611558;28;20490;-66
2021/12/09 13:01:28;;;;;;;28.00;13.73;;;;;;;0.38;100.00;95327.44;10611251;28;20181;-65
2021/12/09 13:06:46;;;;;;;29.90;14.23;;;;;;;0.49;100.00;95314.47;10594181;28;20182;-65
2021/12/09 13:11:52;;;;;;;24.50;13.40;;;;;;;0.14;100.00;95321.63;10570352;28;20213;-66
2021/12/09 13:17:11;;;;;;;28.97;16.30;;;;;;;0.09;100.00;95310.06;10571941;28;20209;-66
2021/12/09 13:22:27;;;;;;;34.37;16.77;;;;;;;0.22;100.00;95305.53;10595229;28;20169;-68
2021/12/09 13:27:56;;;;;;;29.30;16.00;;;;;;;0.26;100.00;95296.63;10570308;28;20185;-67
2021/12/09 13:49:17;;;;;;;32.43;15.50;;;;;;;0.60;100.00;95316.97;10611863;28;20194;-65
2021/12/09 13:54:26;;;;;;;26.33;14.67;;;;;;;0.49;100.00;95322.19;10611249;28;20173;-66
2021/12/09 13:59:29;;;;;;;28.93;15.47;;;;;;;0.47;100.00;95332.63;10607788;28;20204;-65
2021/12/09 14:04:36;;;;;;;29.40;16.27;;;;;;;0.59;100.00;95338.53;10609517;28;20177;-67
2021/12/09 14:09:39;;;;;;;31.10;16.73;;;;;;;0.41;100.00;95329.75;10608641;28;20430;-65
2021/12/09 14:15:17;;;;;;;23.40;13.33;;;;;;;0.41;100.00;95334.91;10609075;28;20216;-67
2021/12/09 14:20:16;;;;;;;24.03;13.37;;;;;;;0.18;100.00;95347.94;10605389;28;20341;-65
2021/12/09 14:25:26;;;;;;;27.47;14.53;;;;;;;-0.07;100.00;95351.72;10609432;28;20252;-66
2021/12/09 14:30:30;;;;;;;22.80;12.30;;;;;;;-0.17;100.00;95355.97;10608250;28;20280;-65
2021/12/09 14:35:34;;;;;;;21.93;12.00;;;;;;;0.04;100.00;95350.84;10610224;28;20169;-65
2021/12/09 14:40:42;;;;;;;23.50;12.53;;;;;;;0.06;100.00;95346.38;10610130;28;20163;-66
2021/12/09 14:46:11;;;;;;;21.93;12.90;;;;;;;0.02;100.00;95350.16;10608237;28;20223;-66
2021/12/09 14:51:25;;;;;;;25.83;13.03;;;;;;;-0.03;100.00;95347.94;10608474;28;20223;-67
2021/12/09 14:56:30;;;;;;;24.33;13.37;;;;;;;0.02;100.00;95357.88;10609354;28;20177;-67
2021/12/09 15:01:33;;;;;;;24.03;13.07;;;;;;;-0.41;100.00;95357.81;10608377;28;20195;-66
2021/12/09 15:06:38;;;;;;;22.83;13.00;;;;;;;-0.24;100.00;95365.94;10607912;28;20463;-66
2021/12/09 15:11:40;;;;;;;24.37;13.93;;;;;;;-0.50;100.00;95378.31;10607685;28;20203;-66
2021/12/09 15:16:40;;;;;;;25.13;12.17;;;;;;;-0.11;100.00;95358.03;10607326;28;20497;-65
2021/12/09 15:21:41;;;;;;;22.70;12.23;;;;;;;-0.09;100.00;95372.44;10607744;28;20169;-64
2021/12/09 15:26:51;;;;;;;20.07;11.60;;;;;;;-0.32;100.00;95376.84;10590035;28;20174;-65
2021/12/09 15:32:00;;;;;;;24.63;12.70;;;;;;;-0.46;100.00;95369.41;10608022;28;20216;-65
2021/12/09 15:37:05;;;;;;;21.50;10.97;;;;;;;-0.38;100.00;95377.34;10607704;28;20219;-65
2021/12/09 15:42:15;;;;;;;21.73;12.20;;;;;;;-0.47;100.00;95371.16;10607288;28;20285;-64
2021/12/09 15:47:18;;;;;;;26.63;11.77;;;;;;;-0.48;100.00;95366.16;10606540;28;20300;-64
2021/12/09 15:52:22;;;;;;;22.57;11.87;;;;;;;-0.46;100.00;95372.81;10607070;28;20198;-68
2021/12/09 15:57:31;;;;;;;23.87;11.20;;;;;;;-0.45;100.00;95368.47;10587542;28;20184;-65
2021/12/09 16:02:33;;;;;;;20.00;12.07;;;;;;;-0.71;100.00;95371.34;10606115;28;20166;-66
2021/12/09 16:07:34;;;;;;;24.53;11.73;;;;;;;-0.61;100.00;95368.88;10605804;28;20197;-65
2021/12/09 16:12:34;;;;;;;45.67;23.30;;;;;;;-0.60;100.00;95370.50;10606421;28;20379;-67
2021/12/09 16:17:35;;;;;;;38.77;24.33;;;;;;;-0.55;100.00;95371.78;10605652;28;20221;-65
2021/12/09 16:22:36;;;;;;;22.87;11.50;;;;;;;-0.64;100.00;95379.41;10614735;28;20173;-66
2021/12/09 16:27:39;;;;;;;22.27;12.57;;;;;;;-0.49;100.00;95378.19;10613557;28;20176;-65
2021/12/09 16:32:42;;;;;;;17.93;10.73;;;;;;;-0.58;100.00;95378.94;10614104;28;20177;-65
2021/12/09 16:37:43;;;;;;;18.20;9.27;;;;;;;-0.63;100.00;95376.72;10614074;28;20239;-65
2021/12/09 16:42:45;;;;;;;19.57;9.93;;;;;;;-0.59;100.00;95367.00;10612768;28;20173;-66
2021/12/09 16:47:46;;;;;;;18.17;9.97;;;;;;;-0.67;100.00;95382.19;10613886;28;20193;-65
2021/12/09 16:52:47;;;;;;;18.80;10.07;;;;;;;-0.57;100.00;95365.09;10613286;28;20190;-65
2021/12/09 16:57:50;;;;;;;15.93;10.00;;;;;;;-0.48;100.00;95372.09;10613551;28;20162;-66
2021/12/09 17:02:51;;;;;;;17.17;9.33;;;;;;;-0.57;100.00;95370.25;10610711;28;20208;-67
2021/12/09 17:07:53;;;;;;;20.17;11.37;;;;;;;-0.53;100.00;95376.00;10614728;28;20195;-66
2021/12/09 17:12:54;;;;;;;28.60;16.43;;;;;;;-0.47;100.00;95363.44;10615662;28;20438;-65
2021/12/09 17:17:56;;;;;;;23.30;13.43;;;;;;;-0.41;100.00;95369.88;10615601;28;20222;-66
2021/12/09 17:22:59;;;;;;;31.90;15.57;;;;;;;-0.23;100.00;95372.72;10614819;28;20219;-65
2021/12/09 17:28:02;;;;;;;18.43;11.33;;;;;;;-0.39;100.00;95367.97;10615177;28;20212;-65
2021/12/09 17:33:03;;;;;;;21.27;12.83;;;;;;;-0.34;100.00;95360.69;10613514;28;20295;-65
2021/12/09 17:38:03;;;;;;;18.27;11.03;;;;;;;-0.15;100.00;95362.63;10614299;28;20162;-65
2021/12/09 17:43:05;;;;;;;36.77;21.80;;;;;;;-0.41;100.00;95372.44;10614676;28;20194;-66
2021/12/09 17:48:06;;;;;;;17.93;9.50;;;;;;;-0.37;100.00;95366.94;10613833;28;20209;-65
2021/12/09 17:53:08;;;;;;;20.13;11.63;;;;;;;-0.53;100.00;95363.13;10613962;28;20169;-65
2021/12/09 17:58:10;;;;;;;29.73;18.67;;;;;;;-0.55;100.00;95358.09;10613847;28;20174;-65
2021/12/09 18:03:11;;;;;;;21.70;14.37;;;;;;;-0.60;100.00;95358.47;10613871;28;20227;-65
2021/12/09 18:08:14;;;;;;;18.70;11.67;;;;;;;-0.46;100.00;95357.38;10613125;28;20247;-65
2021/12/09 18:13:15;;;;;;;18.50;11.47;;;;;;;-0.44;100.00;95352.91;10613420;28;20174;-65
2021/12/09 18:18:18;;;;;;;17.27;10.47;;;;;;;-0.30;100.00;95351.00;10613249;28;20205;-64
2021/12/09 18:23:19;;;;;;;16.97;10.93;;;;;;;-0.48;100.00;95346.38;10612669;28;20193;-65
2021/12/09 18:28:22;;;;;;;16.33;10.00;;;;;;;-0.40;100.00;95346.59;10612818;28;20351;-65
2021/12/09 18:33:23;;;;;;;18.40;10.60;;;;;;;-0.61;100.00;95351.69;10612352;28;20170;-65
2021/12/09 18:38:24;;;;;;;18.30;10.93;;;;;;;-0.69;100.00;95343.75;10612190;28;20180;-66
2021/12/09 18:43:25;;;;;;;18.37;11.03;;;;;;;-0.53;100.00;95348.50;10611158;28;20175;-65
2021/12/09 18:48:26;;;;;;;17.30;10.03;;;;;;;-0.44;100.00;95354.69;10594659;28;20201;-65
2021/12/09 18:53:29;;;;;;;17.67;10.33;;;;;;;-0.35;100.00;95364.25;10611272;28;20170;-64
2021/12/09 18:58:29;;;;;;;16.63;10.90;;;;;;;-0.33;100.00;95375.22;10611836;28;20227;-65
2021/12/09 19:03:35;;;;;;;18.20;10.20;;;;;;;-0.34;100.00;95390.78;10610553;28;20227;-66
2021/12/09 19:08:35;;;;;;;16.37;10.03;;;;;;;-0.22;100.00;95400.09;10610493;28;20194;-64
2021/12/09 19:13:37;;;;;;;15.03;9.23;;;;;;;-0.37;100.00;95384.09;10610844;28;20178;-65
2021/12/09 19:18:38;;;;;;;15.60;8.97;;;;;;;-0.40;100.00;95376.63;10609984;28;20214;-66
2021/12/09 19:23:43;;;;;;;14.37;9.53;;;;;;;-0.20;100.00;95387.91;10610440;28;20185;-64
2021/12/09 19:28:44;;;;;;;17.97;9.90;;;;;;;-0.39;100.00;95376.50;10609807;28;20194;-66
2021/12/09 19:33:45;;;;;;;13.57;9.03;;;;;;;-0.39;100.00;95365.41;10609734;28;20177;-64
2021/12/09 19:38:45;;;;;;;16.17;10.10;;;;;;;-0.28;100.00;95354.25;10609278;28;20167;-64
2021/12/09 19:43:46;;;;;;;16.40;10.07;;;;;;;-0.36;100.00;95365.16;10609420;28;20259;-65
2021/12/09 19:48:49;;;;;;;13.60;8.50;;;;;;;-0.45;100.00;95353.84;10608393;28;20440;-66
2021/12/09 19:53:51;;;;;;;15.23;9.77;;;;;;;-0.49;100.00;95342.19;10608987;28;20166;-64
2021/12/09 19:58:52;;;;;;;14.60;8.80;;;;;;;-0.30;100.00;95328.66;10608887;28;20159;-65
2021/12/09 20:03:52;;;;;;;15.93;8.87;;;;;;;-0.41;100.00;95321.81;10608636;28;20158;-65
2021/12/09 20:08:56;;;;;;;16.77;9.67;;;;;;;-0.24;100.00;95320.44;10608584;28;20412;-66
2021/12/09 20:13:56;;;;;;;18.57;10.87;;;;;;;-0.25;100.00;95323.94;10608689;28;20200;-64
2021/12/09 20:18:57;;;;;;;20.87;12.00;;;;;;;-0.33;100.00;95321.19;10607277;28;20201;-66
2021/12/09 20:24:00;;;;;;;24.40;11.60;;;;;;;-0.22;100.00;95317.72;10608730;28;20194;-66
2021/12/09 20:29:01;;;;;;;21.27;11.53;;;;;;;-0.21;100.00;95325.34;10607833;28;20192;-65
2021/12/09 20:34:01;;;;;;;24.47;12.80;;;;;;;-0.28;100.00;95325.94;10606695;28;20170;-66
2021/12/09 20:39:03;;;;;;;26.47;14.17;;;;;;;-0.31;100.00;95323.63;10605916;28;20178;-66
2021/12/09 20:44:04;;;;;;;24.40;12.90;;;;;;;-0.29;100.00;95329.47;10605831;28;20162;-64
2021/12/09 20:49:06;;;;;;;23.70;14.00;;;;;;;-0.15;100.00;95326.59;10604858;28;20194;-65
2021/12/09 20:54:07;;;;;;;24.13;13.70;;;;;;;-0.13;100.00;95319.56;10605900;28;20182;-65
2021/12/09 20:59:07;;;;;;;23.73;13.43;;;;;;;-0.10;100.00;95326.22;10606994;28;20169;-66
2021/12/09 21:04:08;;;;;;;21.47;11.07;;;;;;;-0.08;100.00;95332.84;10606987;28;20162;-63
2021/12/09 21:09:08;;;;;;;19.80;11.43;;;;;;;0.03;100.00;95331.16;10615097;28;20261;-63
2021/12/09 21:14:09;;;;;;;20.70;11.90;;;;;;;-0.11;100.00;95320.25;10614400;28;20388;-66
2021/12/09 21:19:11;;;;;;;23.87;12.83;;;;;;;-0.08;100.00;95293.44;10597022;28;20233;-66
2021/12/09 21:24:11;;;;;;;26.37;14.57;;;;;;;-0.19;100.00;95282.25;10614815;28;20244;-65
2021/12/09 21:29:19;;;;;;;25.13;12.27;;;;;;;-0.12;100.00;95290.31;10613035;28;20438;-66
2021/12/09 21:34:25;;;;;;;23.57;12.33;;;;;;;0.05;100.00;95267.53;10614142;28;20174;-65
2021/12/09 21:39:27;;;;;;;23.07;12.53;;;;;;;-0.09;100.00;95264.31;10613333;28;20160;-66
2021/12/09 21:44:27;;;;;;;22.83;12.47;;;;;;;-0.01;100.00;95264.50;10613591;28;20267;-65
2021/12/09 21:49:28;;;;;;;20.70;12.43;;;;;;;-0.08;100.00;95265.94;10614103;28;20209;-66
2021/12/09 21:54:29;;;;;;;18.27;11.43;;;;;;;-0.13;100.00;95259.56;10613539;28;20174;-67
2021/12/09 21:59:32;;;;;;;18.60;11.97;;;;;;;-0.09;100.00;95253.19;10613112;28;20182;-65
2021/12/09 22:04:32;;;;;;;19.20;11.37;;;;;;;-0.14;100.00;95263.06;10613477;28;20215;-66
2021/12/09 22:09:34;;;;;;;28.03;14.03;;;;;;;-0.13;100.00;95270.66;10615328;28;20263;-67
2021/12/09 22:14:34;;;;;;;31.83;16.03;;;;;;;-0.05;100.00;95270.81;10613373;28;20440;-66
2021/12/09 22:19:36;;;;;;;33.50;17.07;;;;;;;-0.02;100.00;95260.28;10612711;28;20268;-65
2021/12/09 22:24:37;;;;;;;34.27;17.33;;;;;;;-0.06;100.00;95264.06;10612943;28;20201;-65
2021/12/09 22:29:37;;;;;;;26.43;14.20;;;;;;;-0.02;100.00;95283.44;10611711;28;20208;-65
2021/12/09 22:34:37;;;;;;;27.13;15.07;;;;;;;-0.05;100.00;95296.56;10612596;28;20227;-65
2021/12/09 22:39:38;;;;;;;27.53;15.33;;;;;;;-0.05;100.00;95283.69;10611839;28;20166;-65
2021/12/09 22:44:41;;;;;;;27.10;16.17;;;;;;;-0.07;100.00;95269.34;10611321;28;20165;-65
2021/12/09 22:49:46;;;;;;;27.43;15.30;;;;;;;-0.06;100.00;95253.78;10611600;28;20198;-65
2021/12/09 22:54:52;;;;;;;27.67;14.77;;;;;;;-0.11;100.00;95250.75;10611283;28;20166;-66
2021/12/09 22:59:53;;;;;;;24.47;14.53;;;;;;;-0.10;100.00;95254.16;10610846;28;20158;-65
2021/12/09 23:04:53;;;;;;;29.17;15.37;;;;;;;-0.09;100.00;95260.91;10611123;28;20162;-66
2021/12/09 23:09:56;;;;;;;26.00;13.97;;;;;;;-0.20;100.00;95264.38;10610276;28;20258;-65
2021/12/09 23:15:01;;;;;;;29.27;15.17;;;;;;;-0.06;100.00;95266.63;10610221;28;20221;-66
2021/12/09 23:20:02;;;;;;;27.70;16.53;;;;;;;-0.25;100.00;95274.25;10610449;28;20175;-67
2021/12/09 23:25:03;;;;;;;34.23;17.30;;;;;;;-0.28;100.00;95249.56;10609877;28;20197;-66
2021/12/09 23:30:04;;;;;;;24.63;15.53;;;;;;;-0.15;100.00;95231.38;10609176;28;20198;-66
2021/12/09 23:35:04;;;;;;;30.37;16.00;;;;;;;-0.23;100.00;95236.31;10610562;28;20184;-66